首页
METAR-TAF:

METAR-TAF

机场 :

Oswego County Airport

弗尔顿, 紐約州, 美国

纬度: 43-21-03N, 经度: 076-23-17W, 海拔: 145米

当前天气观测

该预报发布于35分钟前的00:54 UTC
风速6节,风向北转西北
温度 -2°C
湿度 69%
气压 1021 hPa
能見度: 16.1公里
少量云层高于2400英尺
阴天层高于3100英尺

METAR: KFZY 070054Z AUTO 33006KT 10SM FEW024 OVC031 M02/M07 A3016 RMK AO2 SLP220 T10171067

时间: 20:29 (01:29 UTC)


TAF: 丢失

超过4000个机场的气象观测和天气预报(METAR&TAF报告)。

可查询的气象台以黄色和红色小点在地图上表示。

将鼠标移到小点上方,可查看气象台名称。

然后点击查看天气观测和预报。

如需切换地图:点击带黑十字的绿色按钮放大地图;点击带横线的绿色按钮缩小地图;或者点击绿色箭头查看邻近地区的地图。


METAR-TAF: